Time;durP1;ratioP1;P1;durP2;ratioP2;P2;SDS_P1;SDS_P2;PMS_P1;PMS_P2;Temp;Humidity;BMP_temperature;BMP_pressure;BME280_temperature;BME280_humidity;BME280_pressure;Samples;Min_cycle;Max_cycle;Signal;HPM_P1;HPM_P2
2022/05/07 00:00:07;;;;;;;13.52;10.90;;;;;;;;;;5039085;28;20226;-61
2022/05/07 00:02:34;;;;;;;15.27;10.52;;;;;;;;;;5020473;28;20572;-61
2022/05/07 00:04:59;;;;;;;19.95;11.23;;;;;;;;;;5015661;28;20549;-61
2022/05/07 00:07:25;;;;;;;13.48;10.50;;;;;;;;;;5015352;28;20265;-61
2022/05/07 00:09:50;;;;;;;13.05;10.55;;;;;;;;;;5022668;28;20216;-61
2022/05/07 00:12:15;;;;;;;14.13;10.80;;;;;;;;;;5022299;28;20211;-61
2022/05/07 00:14:41;;;;;;;16.75;12.23;;;;;;;;;;5038591;28;20215;-61
2022/05/07 00:19:50;;;;;;;14.65;11.20;;;;;;;;;;5042457;28;20217;-60
2022/05/07 00:22:16;;;;;;;16.35;11.25;;;;;;;;;;5042471;28;20231;-61
2022/05/07 00:24:41;;;;;;;14.93;11.63;;;;;;;;;;5022860;28;20208;-60
2022/05/07 00:27:06;;;;;;;14.73;11.55;;;;;;;;;;5014059;28;20212;-61
2022/05/07 00:29:32;;;;;;;15.38;11.73;;;;;;;;;;5015406;28;20216;-61
2022/05/07 00:31:57;;;;;;;15.02;12.07;;;;;;;;;;5020924;28;20215;-61
2022/05/07 00:34:24;;;;;;;15.80;12.50;;;;;;;;;;5021907;28;20222;-61
2022/05/07 00:36:49;;;;;;;15.98;12.40;;;;;;;;;;5023085;28;20268;-61
2022/05/07 00:39:15;;;;;;;15.65;13.13;;;;;;;;;;5022223;28;20224;-61
2022/05/07 00:41:40;;;;;;;17.95;13.35;;;;;;;;;;5022276;28;20230;-61
2022/05/07 00:44:05;;;;;;;16.83;13.23;;;;;;;;;;5022302;28;20274;-61
2022/05/07 00:46:30;;;;;;;16.85;14.23;;;;;;;;;;5011087;28;20499;-61
2022/05/07 00:48:57;;;;;;;17.33;14.00;;;;;;;;;;4994672;28;20287;-61
2022/05/07 00:51:34;;;;;;;18.02;14.30;;;;;;;;;;4995081;28;20212;-61
2022/05/07 00:54:01;;;;;;;19.58;14.57;;;;;;;;;;5018922;28;20242;-61
2022/05/07 00:56:26;;;;;;;20.02;15.32;;;;;;;;;;5029994;28;20207;-61
2022/05/07 00:58:52;;;;;;;17.60;14.88;;;;;;;;;;5022954;28;20226;-61
2022/05/07 01:01:17;;;;;;;17.85;15.57;;;;;;;;;;5026667;28;20216;-61
2022/05/07 01:03:44;;;;;;;23.23;16.17;;;;;;;;;;5041123;28;20301;-61
2022/05/07 01:06:09;;;;;;;20.33;15.32;;;;;;;;;;5041865;28;20215;-61
2022/05/07 01:08:35;;;;;;;20.33;16.42;;;;;;;;;;5039084;28;20218;-61
2022/05/07 01:11:00;;;;;;;21.95;15.32;;;;;;;;;;5034562;28;20612;-61
2022/05/07 01:13:25;;;;;;;17.48;15.02;;;;;;;;;;5015680;28;20292;-61
2022/05/07 01:15:53;;;;;;;18.48;15.23;;;;;;;;;;5022392;28;20211;-61
2022/05/07 01:18:19;;;;;;;20.40;15.73;;;;;;;;;;5041168;28;20282;-63
2022/05/07 01:20:44;;;;;;;17.70;15.70;;;;;;;;;;5024422;28;20709;-63
2022/05/07 01:23:09;;;;;;;22.23;16.48;;;;;;;;;;5023051;28;20888;-63
2022/05/07 01:25:34;;;;;;;22.02;17.75;;;;;;;;;;5042363;28;20561;-63
2022/05/07 01:28:00;;;;;;;20.42;17.52;;;;;;;;;;5042236;28;20230;-63
2022/05/07 01:30:25;;;;;;;21.05;17.17;;;;;;;;;;5041913;28;20203;-63
2022/05/07 01:32:50;;;;;;;20.10;16.00;;;;;;;;;;5038831;28;20557;-63
2022/05/07 01:35:15;;;;;;;20.80;16.52;;;;;;;;;;5037850;28;20218;-62
2022/05/07 01:37:41;;;;;;;20.95;17.83;;;;;;;;;;5038619;28;20897;-63
2022/05/07 01:40:07;;;;;;;21.95;17.95;;;;;;;;;;5043918;28;20210;-63
2022/05/07 01:42:32;;;;;;;22.85;18.42;;;;;;;;;;5046180;28;20215;-63
2022/05/07 01:44:57;;;;;;;21.27;18.88;;;;;;;;;;5045149;28;20246;-63
2022/05/07 01:50:06;;;;;;;22.38;18.42;;;;;;;;;;5044913;28;20349;-62
2022/05/07 01:52:32;;;;;;;25.15;20.50;;;;;;;;;;5045238;28;20302;-63
2022/05/07 01:54:57;;;;;;;22.83;19.38;;;;;;;;;;5035263;28;20527;-63
2022/05/07 01:57:22;;;;;;;24.08;20.00;;;;;;;;;;5017679;28;20674;-63
2022/05/07 01:59:47;;;;;;;25.02;19.85;;;;;;;;;;5036955;28;20211;-63
2022/05/07 02:02:13;;;;;;;24.00;19.80;;;;;;;;;;5030184;28;20571;-63
2022/05/07 02:04:39;;;;;;;24.35;19.48;;;;;;;;;;5025635;28;20222;-63
2022/05/07 02:07:04;;;;;;;24.92;20.25;;;;;;;;;;5024803;28;20223;-63
2022/05/07 02:09:29;;;;;;;24.30;19.95;;;;;;;;;;5026064;28;20565;-62
2022/05/07 02:11:55;;;;;;;25.10;20.73;;;;;;;;;;5024710;28;20633;-63
2022/05/07 02:14:20;;;;;;;24.40;20.25;;;;;;;;;;5025733;28;20219;-63
2022/05/07 02:16:45;;;;;;;22.70;20.25;;;;;;;;;;5025016;28;20219;-63
2022/05/07 02:19:11;;;;;;;27.83;21.42;;;;;;;;;;5016707;28;20347;-63
2022/05/07 02:21:36;;;;;;;27.33;21.90;;;;;;;;;;5017656;28;20220;-63
2022/05/07 02:24:01;;;;;;;28.40;23.02;;;;;;;;;;5019723;28;20251;-62
2022/05/07 02:26:26;;;;;;;27.52;22.38;;;;;;;;;;5024455;28;20204;-63
2022/05/07 02:28:52;;;;;;;26.75;22.05;;;;;;;;;;5025769;28;20659;-63
2022/05/07 02:31:17;;;;;;;28.90;23.15;;;;;;;;;;5025019;28;20254;-63
2022/05/07 02:33:42;;;;;;;28.85;23.80;;;;;;;;;;5024850;28;20258;-63
2022/05/07 02:36:07;;;;;;;28.10;23.17;;;;;;;;;;5024918;28;20302;-63
2022/05/07 02:38:33;;;;;;;26.67;22.95;;;;;;;;;;5025668;28;20210;-63
2022/05/07 02:43:42;;;;;;;27.58;23.10;;;;;;;;;;5036108;28;20724;-63
2022/05/07 02:46:07;;;;;;;28.65;22.05;;;;;;;;;;5032047;28;20231;-63
2022/05/07 02:48:35;;;;;;;33.97;22.42;;;;;;;;;;5024363;28;20211;-63
2022/05/07 02:51:01;;;;;;;29.02;24.25;;;;;;;;;;5043817;28;20203;-62
2022/05/07 02:53:26;;;;;;;26.88;22.85;;;;;;;;;;5044508;28;20210;-63
2022/05/07 02:55:51;;;;;;;30.52;23.75;;;;;;;;;;5043955;28;20233;-63
2022/05/07 02:58:17;;;;;;;26.45;22.67;;;;;;;;;;5025562;28;20207;-63
2022/05/07 03:00:42;;;;;;;28.00;24.10;;;;;;;;;;5025134;28;20695;-63
2022/05/07 03:03:07;;;;;;;29.58;24.58;;;;;;;;;;5017963;28;20255;-63
2022/05/07 03:05:33;;;;;;;27.75;24.15;;;;;;;;;;5017035;28;20629;-63
2022/05/07 03:07:59;;;;;;;30.65;25.02;;;;;;;;;;5016923;28;20585;-63
2022/05/07 03:10:25;;;;;;;29.48;25.08;;;;;;;;;;5021087;28;20249;-63
2022/05/07 03:12:50;;;;;;;31.42;24.52;;;;;;;;;;5044403;28;20206;-63
2022/05/07 03:15:15;;;;;;;31.48;25.67;;;;;;;;;;5033974;28;20223;-63
2022/05/07 03:17:41;;;;;;;30.70;24.83;;;;;;;;;;5024840;28;20226;-63
2022/05/07 03:20:09;;;;;;;30.40;25.58;;;;;;;;;;5023549;28;20216;-63
2022/05/07 03:22:35;;;;;;;37.22;25.52;;;;;;;;;;5043216;28;20582;-63
2022/05/07 03:25:00;;;;;;;33.15;23.73;;;;;;;;;;5040266;28;20215;-62
2022/05/07 03:27:28;;;;;;;29.30;24.67;;;;;;;;;;5035838;28;20230;-63
2022/05/07 03:29:53;;;;;;;30.77;26.13;;;;;;;;;;5035156;28;20233;-63
2022/05/07 03:32:18;;;;;;;29.63;25.88;;;;;;;;;;5039010;28;20602;-63
2022/05/07 03:34:43;;;;;;;31.80;27.05;;;;;;;;;;5044527;28;20222;-63
2022/05/07 03:37:09;;;;;;;35.20;27.42;;;;;;;;;;5042679;28;20692;-63
2022/05/07 03:39:35;;;;;;;28.85;25.73;;;;;;;;;;5043516;28;20215;-63
2022/05/07 03:42:01;;;;;;;32.38;25.98;;;;;;;;;;5043575;28;20223;-62
2022/05/07 03:44:26;;;;;;;29.83;26.17;;;;;;;;;;5042892;28;20210;-63
2022/05/07 03:46:51;;;;;;;34.20;26.67;;;;;;;;;;5032514;28;20306;-63
2022/05/07 03:49:17;;;;;;;34.50;27.83;;;;;;;;;;5015290;28;20373;-63
2022/05/07 03:54:27;;;;;;;32.70;27.17;;;;;;;;;;5035940;28;20222;-63
2022/05/07 03:56:52;;;;;;;32.22;28.00;;;;;;;;;;5036324;28;20204;-63
2022/05/07 03:59:17;;;;;;;33.90;27.90;;;;;;;;;;5022740;28;20208;-63
2022/05/07 04:01:42;;;;;;;33.53;28.58;;;;;;;;;;5023897;28;20369;-63
2022/05/07 04:04:08;;;;;;;36.42;28.48;;;;;;;;;;5023384;28;20215;-63
2022/05/07 04:06:33;;;;;;;33.38;28.77;;;;;;;;;;5022787;28;20686;-62
2022/05/07 04:08:58;;;;;;;34.88;29.17;;;;;;;;;;5042876;28;20207;-62
2022/05/07 04:11:23;;;;;;;38.00;30.23;;;;;;;;;;5028230;28;20294;-63
2022/05/07 04:13:49;;;;;;;36.65;30.33;;;;;;;;;;5015372;28;20203;-63
2022/05/07 04:16:14;;;;;;;35.10;30.45;;;;;;;;;;5015856;28;20591;-63
2022/05/07 04:18:39;;;;;;;38.60;31.80;;;;;;;;;;5020949;28;20277;-63
2022/05/07 04:21:04;;;;;;;37.90;31.30;;;;;;;;;;5022563;28;20315;-63
2022/05/07 04:23:30;;;;;;;38.63;32.67;;;;;;;;;;5023477;28;20256;-62
2022/05/07 04:25:55;;;;;;;38.70;32.15;;;;;;;;;;5022080;28;20212;-62
2022/05/07 04:28:20;;;;;;;38.53;32.33;;;;;;;;;;5023241;28;20243;-62
2022/05/07 04:30:46;;;;;;;36.03;31.27;;;;;;;;;;5023320;28;20219;-63
2022/05/07 04:33:11;;;;;;;39.17;32.30;;;;;;;;;;5019198;28;20306;-63
2022/05/07 04:35:36;;;;;;;39.28;32.92;;;;;;;;;;5014636;28;20207;-63
2022/05/07 04:38:01;;;;;;;38.50;32.85;;;;;;;;;;5014561;28;20253;-62
2022/05/07 04:40:28;;;;;;;39.67;32.78;;;;;;;;;;5017306;28;20302;-63
2022/05/07 04:42:53;;;;;;;36.45;30.90;;;;;;;;;;5022989;28;20299;-63
2022/05/07 04:45:18;;;;;;;38.85;32.15;;;;;;;;;;5022594;28;20208;-63
2022/05/07 04:47:44;;;;;;;38.30;32.17;;;;;;;;;;5022359;28;20684;-63
2022/05/07 04:50:09;;;;;;;37.60;31.70;;;;;;;;;;5022650;28;20759;-62
2022/05/07 04:52:34;;;;;;;37.42;31.55;;;;;;;;;;5022627;28;20204;-62
2022/05/07 04:55:01;;;;;;;39.35;32.28;;;;;;;;;;5021616;28;20718;-62
2022/05/07 04:57:26;;;;;;;41.08;32.88;;;;;;;;;;4995010;28;20219;-62
2022/05/07 04:59:51;;;;;;;38.30;32.78;;;;;;;;;;5014564;28;20263;-63
2022/05/07 05:02:16;;;;;;;37.40;32.78;;;;;;;;;;5001499;28;20232;-63
2022/05/07 05:04:41;;;;;;;37.53;32.33;;;;;;;;;;5002324;28;20630;-63
2022/05/07 05:07:07;;;;;;;39.92;32.25;;;;;;;;;;5002373;28;20247;-63
2022/05/07 05:09:32;;;;;;;37.00;30.55;;;;;;;;;;5002747;28;20262;-63
2022/05/07 05:11:57;;;;;;;37.63;31.38;;;;;;;;;;5002878;28;20295;-64
2022/05/07 05:17:06;;;;;;;38.58;31.67;;;;;;;;;;5006938;28;20215;-61
2022/05/07 05:19:32;;;;;;;38.90;33.97;;;;;;;;;;5027257;28;20429;-61
2022/05/07 05:21:57;;;;;;;36.65;31.92;;;;;;;;;;5031732;28;20278;-61
2022/05/07 05:24:23;;;;;;;37.92;31.55;;;;;;;;;;5031768;28;20204;-60
2022/05/07 05:26:48;;;;;;;35.28;30.92;;;;;;;;;;5031283;28;20645;-61
2022/05/07 05:29:13;;;;;;;36.80;32.25;;;;;;;;;;5030366;28;20214;-61
2022/05/07 05:31:38;;;;;;;37.40;31.15;;;;;;;;;;5031832;28;20253;-60
2022/05/07 05:34:04;;;;;;;36.22;31.05;;;;;;;;;;5031474;28;20214;-60
2022/05/07 05:36:30;;;;;;;36.05;30.67;;;;;;;;;;5028114;28;20251;-59
2022/05/07 05:38:56;;;;;;;37.15;30.67;;;;;;;;;;5030879;28;20239;-60
2022/05/07 05:41:21;;;;;;;35.90;30.70;;;;;;;;;;5039041;28;20258;-60
2022/05/07 05:43:47;;;;;;;37.03;31.65;;;;;;;;;;5031004;28;20212;-61
2022/05/07 05:46:14;;;;;;;38.22;31.42;;;;;;;;;;5031496;28;20203;-61
2022/05/07 05:48:39;;;;;;;34.90;29.58;;;;;;;;;;5031944;28;20208;-62
2022/05/07 05:51:04;;;;;;;39.22;31.30;;;;;;;;;;5031170;28;20278;-61
2022/05/07 05:53:30;;;;;;;38.28;30.65;;;;;;;;;;5032125;28;20207;-74
2022/05/07 05:55:56;;;;;;;36.25;29.52;;;;;;;;;;5031688;28;20252;-67
2022/05/07 05:58:21;;;;;;;35.72;29.90;;;;;;;;;;5030867;28;20290;-65
2022/05/07 06:00:46;;;;;;;36.63;32.00;;;;;;;;;;5030920;28;20562;-69
2022/05/07 06:03:12;;;;;;;36.85;31.73;;;;;;;;;;5011872;28;20705;-66
2022/05/07 06:05:37;;;;;;;36.47;29.70;;;;;;;;;;5011773;28;20204;-66
2022/05/07 06:08:02;;;;;;;35.80;29.95;;;;;;;;;;5012197;28;20692;-67
2022/05/07 06:10:27;;;;;;;36.15;30.00;;;;;;;;;;5011802;28;20624;-67
2022/05/07 06:12:53;;;;;;;40.30;30.60;;;;;;;;;;5011200;28;20586;-68
2022/05/07 06:15:18;;;;;;;37.33;29.45;;;;;;;;;;5015367;28;20215;-68
2022/05/07 06:17:43;;;;;;;34.38;28.38;;;;;;;;;;5019702;28;20217;-68
2022/05/07 06:20:09;;;;;;;32.65;26.90;;;;;;;;;;5033648;28;20295;-67
2022/05/07 06:22:34;;;;;;;34.60;26.92;;;;;;;;;;5038477;28;20223;-66
2022/05/07 06:27:43;;;;;;;32.63;26.42;;;;;;;;;;5049255;28;20218;-68
2022/05/07 06:30:09;;;;;;;28.55;23.70;;;;;;;;;;5034661;28;20211;-67
2022/05/07 06:32:36;;;;;;;30.00;22.90;;;;;;;;;;5034610;28;20211;-67
2022/05/07 06:35:03;;;;;;;25.20;18.83;;;;;;;;;;5030807;28;20218;-65
2022/05/07 06:37:29;;;;;;;20.67;17.90;;;;;;;;;;5035530;28;20235;-67
2022/05/07 06:39:54;;;;;;;21.98;14.88;;;;;;;;;;5033868;28;20818;-66
2022/05/07 06:42:19;;;;;;;18.92;14.55;;;;;;;;;;5035007;28;20235;-66
2022/05/07 06:44:44;;;;;;;21.67;14.13;;;;;;;;;;5035379;28;20208;-68
2022/05/07 06:47:10;;;;;;;19.35;13.27;;;;;;;;;;5033889;28;20212;-69
2022/05/07 06:49:37;;;;;;;20.27;13.45;;;;;;;;;;5035133;28;20212;-67
2022/05/07 06:52:02;;;;;;;18.10;13.30;;;;;;;;;;5034160;28;20239;-68
2022/05/07 06:54:27;;;;;;;18.15;11.48;;;;;;;;;;5033908;28;20698;-66
2022/05/07 06:56:53;;;;;;;16.48;12.32;;;;;;;;;;5035078;28;20208;-64
2022/05/07 06:59:18;;;;;;;17.40;11.77;;;;;;;;;;5034340;28;20303;-63
2022/05/07 07:01:43;;;;;;;14.52;10.27;;;;;;;;;;5033264;28;20223;-63
2022/05/07 07:04:09;;;;;;;19.23;11.55;;;;;;;;;;5034258;28;20354;-63
2022/05/07 07:06:34;;;;;;;17.05;11.15;;;;;;;;;;5034984;28;20212;-63
2022/05/07 07:09:00;;;;;;;17.05;12.40;;;;;;;;;;5033610;28;20219;-63
2022/05/07 07:11:25;;;;;;;15.73;11.32;;;;;;;;;;5033936;28;20214;-63
2022/05/07 07:13:50;;;;;;;16.05;10.45;;;;;;;;;;5034593;28;20207;-63
2022/05/07 07:16:16;;;;;;;14.70;9.75;;;;;;;;;;5033569;28;20618;-63
2022/05/07 07:18:41;;;;;;;14.43;10.70;;;;;;;;;;5034306;28;20231;-63
2022/05/07 07:21:06;;;;;;;16.63;10.27;;;;;;;;;;5033964;28;20223;-63
2022/05/07 07:23:32;;;;;;;17.33;10.18;;;;;;;;;;5033872;28;20273;-63
2022/05/07 07:25:57;;;;;;;18.08;10.18;;;;;;;;;;5034243;28;20203;-63
2022/05/07 07:28:22;;;;;;;15.85;10.60;;;;;;;;;;5031976;28;20257;-63
2022/05/07 07:30:48;;;;;;;15.70;10.35;;;;;;;;;;5034063;28;20662;-65
2022/05/07 07:33:14;;;;;;;16.60;10.07;;;;;;;;;;5033985;28;20207;-63
2022/05/07 07:35:39;;;;;;;15.45;9.55;;;;;;;;;;5029710;28;20216;-63
2022/05/07 07:38:04;;;;;;;14.77;10.75;;;;;;;;;;5028954;28;20310;-63
2022/05/07 07:40:31;;;;;;;17.58;10.55;;;;;;;;;;5033480;28;20204;-63
2022/05/07 07:42:56;;;;;;;18.38;11.43;;;;;;;;;;5033120;28;20216;-63
2022/05/07 07:48:05;;;;;;;17.50;10.88;;;;;;;;;;5033580;28;20298;-64
2022/05/07 07:50:31;;;;;;;15.88;11.38;;;;;;;;;;5032999;28;20670;-65
2022/05/07 07:52:57;;;;;;;17.33;12.25;;;;;;;;;;5015986;28;20218;-65
2022/05/07 07:55:23;;;;;;;17.15;11.65;;;;;;;;;;5033091;28;20246;-65
2022/05/07 07:57:49;;;;;;;15.95;11.15;;;;;;;;;;5016664;28;20573;-65
2022/05/07 08:00:15;;;;;;;15.60;12.10;;;;;;;;;;5012697;28;20215;-64
2022/05/07 08:02:47;;;;;;;17.05;11.93;;;;;;;;;;5012564;28;20216;-64
2022/05/07 08:05:12;;;;;;;18.85;13.73;;;;;;;;;;5010399;28;20219;-64
2022/05/07 08:13:05;;;;;;;18.23;14.00;;;;;;;;;;5013339;28;20631;-65
2022/05/07 08:15:30;;;;;;;17.98;13.35;;;;;;;;;;5013799;28;20212;-68
2022/05/07 08:17:55;;;;;;;17.38;14.30;;;;;;;;;;5012933;28;20770;-66
2022/05/07 08:20:21;;;;;;;17.05;13.70;;;;;;;;;;5013000;28;20216;-63
2022/05/07 08:22:46;;;;;;;22.27;14.63;;;;;;;;;;5013318;28;20701;-62
2022/05/07 08:25:11;;;;;;;19.00;14.35;;;;;;;;;;5012551;28;20212;-62
2022/05/07 08:27:37;;;;;;;19.52;14.63;;;;;;;;;;5013432;28;20212;-62
2022/05/07 08:30:02;;;;;;;20.08;15.07;;;;;;;;;;5008159;28;20687;-62
2022/05/07 08:32:27;;;;;;;20.20;14.70;;;;;;;;;;5012268;28;20213;-62
2022/05/07 08:34:52;;;;;;;26.65;15.75;;;;;;;;;;5011185;28;20675;-62
2022/05/07 08:37:18;;;;;;;21.50;14.25;;;;;;;;;;5010650;28;20220;-61
2022/05/07 08:39:43;;;;;;;21.10;14.50;;;;;;;;;;5010520;28;20209;-63
2022/05/07 08:42:09;;;;;;;20.45;14.70;;;;;;;;;;5010624;28;20244;-63
2022/05/07 08:44:34;;;;;;;20.92;15.10;;;;;;;;;;4992447;28;20215;-63
2022/05/07 08:46:59;;;;;;;19.73;13.68;;;;;;;;;;5010597;28;20215;-63
2022/05/07 08:49:25;;;;;;;16.05;12.23;;;;;;;;;;5010717;28;20204;-62
2022/05/07 08:51:50;;;;;;;20.95;12.73;;;;;;;;;;5010751;28;20212;-62
2022/05/07 08:54:15;;;;;;;18.15;12.65;;;;;;;;;;5027647;28;20250;-62
2022/05/07 08:56:41;;;;;;;20.42;14.00;;;;;;;;;;5040451;28;20212;-63
2022/05/07 08:59:06;;;;;;;21.92;14.55;;;;;;;;;;5010449;28;20697;-63
2022/05/07 09:01:31;;;;;;;19.77;14.32;;;;;;;;;;5017316;28;20311;-63
2022/05/07 09:03:58;;;;;;;26.27;16.38;;;;;;;;;;5030582;28;20242;-62
2022/05/07 09:06:24;;;;;;;20.73;14.90;;;;;;;;;;5044953;28;20215;-63
2022/05/07 09:08:49;;;;;;;20.50;14.00;;;;;;;;;;5045578;28;20216;-63
2022/05/07 09:11:15;;;;;;;24.40;14.55;;;;;;;;;;5045443;28;20256;-63
2022/05/07 09:13:41;;;;;;;21.83;13.93;;;;;;;;;;5030345;28;20208;-63
2022/05/07 09:16:06;;;;;;;19.63;13.75;;;;;;;;;;5029424;28;20291;-63
2022/05/07 09:18:31;;;;;;;16.92;11.88;;;;;;;;;;5030624;28;20287;-62
2022/05/07 09:21:16;;;;;;;20.98;12.25;;;;;;;;;;5029600;28;20227;-62
2022/05/07 09:23:43;;;;;;;19.42;12.15;;;;;;;;;;5010693;28;20258;-62
2022/05/07 09:26:08;;;;;;;17.92;11.68;;;;;;;;;;5010193;28;20216;-63
2022/05/07 09:28:34;;;;;;;14.40;10.35;;;;;;;;;;4989365;28;20208;-63
2022/05/07 09:30:59;;;;;;;15.52;10.13;;;;;;;;;;5008712;28;20216;-63
2022/05/07 09:33:32;;;;;;;17.83;11.82;;;;;;;;;;5010195;28;20208;-63
2022/05/07 09:36:07;;;;;;;16.10;11.57;;;;;;;;;;5009579;28;20218;-62
2022/05/07 09:38:32;;;;;;;17.33;11.32;;;;;;;;;;5010357;28;20267;-63
2022/05/07 09:40:57;;;;;;;15.85;10.80;;;;;;;;;;5010400;28;20233;-62
2022/05/07 09:43:23;;;;;;;20.02;11.88;;;;;;;;;;5007842;28;20296;-63
2022/05/07 09:45:48;;;;;;;17.33;10.43;;;;;;;;;;5009371;28;20581;-62
2022/05/07 09:48:13;;;;;;;14.50;9.40;;;;;;;;;;5010014;28;20224;-63
2022/05/07 09:58:33;;;;;;;19.55;11.02;;;;;;;;;;4979191;28;20584;-62
2022/05/07 10:01:10;;;;;;;12.48;7.55;;;;;;;;;;4997053;28;20220;-62
2022/05/07 10:03:52;;;;;;;13.07;8.15;;;;;;;;;;5033099;28;20212;-62
2022/05/07 10:06:21;;;;;;;14.00;8.68;;;;;;;;;;5031907;28;20235;-63
2022/05/07 10:08:49;;;;;;;14.00;8.20;;;;;;;;;;5032626;28;20212;-62
2022/05/07 10:11:15;;;;;;;12.93;7.75;;;;;;;;;;5032623;28;20215;-62
2022/05/07 10:13:40;;;;;;;13.65;8.40;;;;;;;;;;5033788;28;20218;-62
2022/05/07 10:16:05;;;;;;;14.95;7.20;;;;;;;;;;5033429;28;20216;-63
2022/05/07 10:18:35;;;;;;;14.15;7.03;;;;;;;;;;5033044;28;20215;-62
2022/05/07 10:21:09;;;;;;;13.38;7.93;;;;;;;;;;5033335;28;20220;-62
2022/05/07 10:23:34;;;;;;;14.48;8.55;;;;;;;;;;5032087;28;20211;-62
2022/05/07 10:26:01;;;;;;;14.73;7.60;;;;;;;;;;5032840;28;20231;-62
2022/05/07 10:28:37;;;;;;;15.63;7.97;;;;;;;;;;5033247;28;20219;-62
2022/05/07 10:31:02;;;;;;;17.55;7.80;;;;;;;;;;5013027;28;20211;-63
2022/05/07 10:33:28;;;;;;;19.45;9.07;;;;;;;;;;5012993;28;20212;-63
2022/05/07 10:35:53;;;;;;;14.68;8.55;;;;;;;;;;5012223;28;20641;-61
2022/05/07 10:38:26;;;;;;;12.70;8.23;;;;;;;;;;5012478;28;20217;-62
2022/05/07 10:40:56;;;;;;;15.00;8.63;;;;;;;;;;5013435;28;20216;-62
2022/05/07 10:43:28;;;;;;;12.35;7.32;;;;;;;;;;5011961;28;20632;-62
2022/05/07 10:45:55;;;;;;;12.77;7.88;;;;;;;;;;5012675;28;20250;-62
2022/05/07 10:48:20;;;;;;;13.57;8.43;;;;;;;;;;5011764;28;20663;-62
2022/05/07 10:50:51;;;;;;;15.18;8.60;;;;;;;;;;5013211;28;20212;-62
2022/05/07 10:53:16;;;;;;;12.93;7.88;;;;;;;;;;5012137;28;20706;-63
2022/05/07 10:55:41;;;;;;;12.40;8.23;;;;;;;;;;5025720;28;20251;-62
2022/05/07 10:58:07;;;;;;;13.27;8.63;;;;;;;;;;5049815;28;20207;-62
2022/05/07 11:00:34;;;;;;;14.52;8.25;;;;;;;;;;5051765;28;20599;-62
2022/05/07 11:02:59;;;;;;;12.80;8.10;;;;;;;;;;5032104;28;20220;-62
2022/05/07 11:05:31;;;;;;;13.80;8.00;;;;;;;;;;5032368;28;20219;-62
2022/05/07 11:07:57;;;;;;;12.43;8.07;;;;;;;;;;5032092;28;20294;-62
2022/05/07 11:10:22;;;;;;;16.58;8.45;;;;;;;;;;5032151;28;20242;-62
2022/05/07 11:12:47;;;;;;;14.48;8.63;;;;;;;;;;5032652;28;20208;-62
2022/05/07 11:15:13;;;;;;;15.00;8.20;;;;;;;;;;5013651;28;20216;-62
2022/05/07 11:17:41;;;;;;;15.43;7.85;;;;;;;;;;5014782;28;20678;-62
2022/05/07 11:20:06;;;;;;;14.30;7.70;;;;;;;;;;5032112;28;20220;-63
2022/05/07 11:22:32;;;;;;;13.02;7.38;;;;;;;;;;5031571;28;20270;-62
2022/05/07 11:24:58;;;;;;;13.02;7.60;;;;;;;;;;5032523;28;20270;-62
2022/05/07 11:27:26;;;;;;;14.25;8.73;;;;;;;;;;5031399;28;20319;-62
2022/05/07 11:29:52;;;;;;;16.00;9.85;;;;;;;;;;5019121;28;20235;-62
2022/05/07 11:32:18;;;;;;;17.33;9.60;;;;;;;;;;5014157;28;20704;-62
2022/05/07 11:34:43;;;;;;;14.38;9.05;;;;;;;;;;5031554;28;20224;-62
2022/05/07 11:37:12;;;;;;;18.35;9.57;;;;;;;;;;5014115;28;20674;-62
2022/05/07 11:39:53;;;;;;;15.35;9.57;;;;;;;;;;5032156;28;20303;-62
2022/05/07 11:42:25;;;;;;;14.95;9.05;;;;;;;;;;5030750;28;20228;-62
2022/05/07 11:47:35;;;;;;;18.88;9.48;;;;;;;;;;5031500;28;20222;-62
2022/05/07 11:50:07;;;;;;;16.92;9.55;;;;;;;;;;5030739;28;20576;-63
2022/05/07 11:52:32;;;;;;;15.38;8.77;;;;;;;;;;5031992;28;20211;-62
2022/05/07 11:55:02;;;;;;;13.48;8.40;;;;;;;;;;5031730;28;20232;-61
2022/05/07 11:57:29;;;;;;;14.68;8.77;;;;;;;;;;5025248;28;20214;-61
2022/05/07 11:59:55;;;;;;;12.88;8.15;;;;;;;;;;5051736;28;20680;-62
2022/05/07 12:02:20;;;;;;;14.85;8.20;;;;;;;;;;5036968;28;20315;-62
2022/05/07 12:04:46;;;;;;;15.32;8.30;;;;;;;;;;5030990;28;20262;-62
2022/05/07 12:07:12;;;;;;;14.57;8.07;;;;;;;;;;5031239;28;20239;-62
2022/05/07 12:09:37;;;;;;;27.02;7.80;;;;;;;;;;5030729;28;20216;-62
2022/05/07 12:12:03;;;;;;;11.18;7.35;;;;;;;;;;5031110;28;20563;-62
2022/05/07 12:14:28;;;;;;;11.30;7.05;;;;;;;;;;5031323;28;20212;-62
2022/05/07 12:19:37;;;;;;;12.63;7.38;;;;;;;;;;5030960;28;20270;-61
2022/05/07 12:30:16;;;;;;;14.77;8.18;;;;;;;;;;5026626;28;20350;-62
2022/05/07 12:32:43;;;;;;;16.08;8.13;;;;;;;;;;5019702;28;20216;-62
2022/05/07 12:35:09;;;;;;;13.48;8.10;;;;;;;;;;5010131;28;20212;-62
2022/05/07 12:37:35;;;;;;;13.13;8.02;;;;;;;;;;5018010;28;20208;-62
2022/05/07 12:40:01;;;;;;;15.65;9.43;;;;;;;;;;5018537;28;20338;-62
2022/05/07 12:42:26;;;;;;;16.85;10.18;;;;;;;;;;5025602;28;20683;-62
2022/05/07 12:44:51;;;;;;;17.13;11.30;;;;;;;;;;5024980;28;20214;-62
2022/05/07 12:47:18;;;;;;;20.17;13.77;;;;;;;;;;5024765;28;20208;-63
2022/05/07 12:49:43;;;;;;;22.10;12.43;;;;;;;;;;5025548;28;20285;-62
2022/05/07 12:52:09;;;;;;;19.38;13.38;;;;;;;;;;5024573;28;20674;-63
2022/05/07 12:54:35;;;;;;;23.50;15.63;;;;;;;;;;5028654;28;20605;-63
2022/05/07 12:57:00;;;;;;;20.35;14.20;;;;;;;;;;5017533;28;20206;-63
2022/05/07 12:59:26;;;;;;;21.60;14.57;;;;;;;;;;5056375;28;20432;-63
2022/05/07 13:01:51;;;;;;;22.58;13.88;;;;;;;;;;5047295;28;20242;-63
2022/05/07 13:04:17;;;;;;;22.13;12.63;;;;;;;;;;5043201;28;20333;-64
2022/05/07 13:06:43;;;;;;;18.23;12.18;;;;;;;;;;5044409;28;20207;-63
2022/05/07 13:09:08;;;;;;;14.07;8.68;;;;;;;;;;5044533;28;20219;-63
2022/05/07 13:11:33;;;;;;;15.77;8.65;;;;;;;;;;5045025;28;20307;-62
2022/05/07 13:13:59;;;;;;;15.45;7.95;;;;;;;;;;5026143;28;20218;-63
2022/05/07 13:16:24;;;;;;;13.35;7.57;;;;;;;;;;5044546;28;20330;-64
2022/05/07 13:18:50;;;;;;;10.77;5.93;;;;;;;;;;5040096;28;20206;-63
2022/05/07 13:21:15;;;;;;;8.93;5.43;;;;;;;;;;5036759;28;20304;-63
2022/05/07 13:23:41;;;;;;;8.80;5.43;;;;;;;;;;5018478;28;20238;-63
2022/05/07 13:26:07;;;;;;;8.15;4.85;;;;;;;;;;5039895;28;20914;-63
2022/05/07 13:28:32;;;;;;;8.68;5.13;;;;;;;;;;5044142;28;20666;-62
2022/05/07 13:30:58;;;;;;;9.38;4.80;;;;;;;;;;5044650;28;20210;-62
2022/05/07 13:33:24;;;;;;;8.02;4.30;;;;;;;;;;5047980;28;20290;-62
2022/05/07 13:35:49;;;;;;;6.85;4.20;;;;;;;;;;5049178;28;20211;-62
2022/05/07 13:38:14;;;;;;;7.78;3.63;;;;;;;;;;5049735;28;20211;-63
2022/05/07 13:40:40;;;;;;;6.32;3.95;;;;;;;;;;5050024;28;20256;-62
2022/05/07 13:43:05;;;;;;;8.13;4.78;;;;;;;;;;5049327;28;20697;-63
2022/05/07 13:45:30;;;;;;;8.70;5.10;;;;;;;;;;5050082;28;20719;-63
2022/05/07 13:47:56;;;;;;;7.65;4.30;;;;;;;;;;5050015;28;20620;-62
2022/05/07 13:50:21;;;;;;;10.23;4.93;;;;;;;;;;5048249;28;20260;-62
2022/05/07 13:52:46;;;;;;;8.27;4.57;;;;;;;;;;5050058;28;20685;-62
2022/05/07 13:55:13;;;;;;;8.38;4.00;;;;;;;;;;5048832;28;20724;-62
2022/05/07 13:57:38;;;;;;;4.63;3.08;;;;;;;;;;5049913;28;20682;-62
2022/05/07 14:00:04;;;;;;;5.93;3.03;;;;;;;;;;5049421;28;20226;-62
2022/05/07 14:02:31;;;;;;;5.15;2.80;;;;;;;;;;5033827;28;20243;-62
2022/05/07 14:04:58;;;;;;;4.97;3.00;;;;;;;;;;5029504;28;20735;-62
2022/05/07 14:07:23;;;;;;;7.60;3.33;;;;;;;;;;5029666;28;20291;-62
2022/05/07 14:09:48;;;;;;;4.40;2.67;;;;;;;;;;5029310;28;20295;-62
2022/05/07 14:12:15;;;;;;;5.35;3.17;;;;;;;;;;5029473;28;20629;-62
2022/05/07 14:14:40;;;;;;;5.72;2.80;;;;;;;;;;5029966;28;20238;-62
2022/05/07 14:17:07;;;;;;;5.95;3.05;;;;;;;;;;5028597;28;20674;-62
2022/05/07 14:19:33;;;;;;;7.35;3.58;;;;;;;;;;5029398;28;20339;-62
2022/05/07 14:22:00;;;;;;;3.92;2.58;;;;;;;;;;5029776;28;20256;-62
2022/05/07 14:24:25;;;;;;;6.40;2.55;;;;;;;;;;5048617;28;20211;-62
2022/05/07 14:26:51;;;;;;;6.00;2.70;;;;;;;;;;5049750;28;20218;-61
2022/05/07 14:29:16;;;;;;;5.13;2.63;;;;;;;;;;5034806;28;20243;-63
2022/05/07 14:31:41;;;;;;;6.05;2.60;;;;;;;;;;5026336;28;20211;-62
2022/05/07 14:34:06;;;;;;;3.92;2.15;;;;;;;;;;5011411;28;20243;-63
2022/05/07 14:36:32;;;;;;;4.45;2.35;;;;;;;;;;5013260;28;20304;-62
2022/05/07 14:38:57;;;;;;;6.10;3.10;;;;;;;;;;5014202;28;20209;-62
2022/05/07 14:41:23;;;;;;;7.78;2.97;;;;;;;;;;5014097;28;20225;-63
2022/05/07 14:43:48;;;;;;;5.03;3.28;;;;;;;;;;5019231;28;20259;-62
2022/05/07 14:46:15;;;;;;;7.95;4.30;;;;;;;;;;5012235;28;20205;-63
2022/05/07 14:48:40;;;;;;;8.73;5.30;;;;;;;;;;5013414;28;20212;-62
2022/05/07 14:51:05;;;;;;;9.57;4.68;;;;;;;;;;5012605;28;20432;-62
2022/05/07 14:53:31;;;;;;;8.00;4.80;;;;;;;;;;5013011;28;20227;-62
2022/05/07 14:55:56;;;;;;;11.63;5.95;;;;;;;;;;5013172;28;20224;-62
2022/05/07 14:58:21;;;;;;;9.48;5.75;;;;;;;;;;5031941;28;20216;-62
2022/05/07 15:00:47;;;;;;;11.20;6.18;;;;;;;;;;5031071;28;20222;-62